Terminal Aerodrome Forecast
Issued by NWS

Home | Current Version | Previous Version | Text Only | Print | Product List | Glossary On
Versions: 1 2 3 4 5 6 7 8 9 10 11 12 13 14 15 16 17 18
000
FTUS44 KLIX 172300
TAFMSY
TAF
KMSY 172338Z 1800/1824 VRB03KT P6SM FEW035 BKN250
     FM181400 08005KT P6SM SCT025
     FM181600 07006KT P6SM VCSH BKN035 PROB30 1818/1824 3SM -TSRA
      BKN028CB=

USA.gov is the U.S. government's official web portal to all federal, state and local government web resources and services.